Time;durP1;ratioP1;P1;durP2;ratioP2;P2;SDS_P1;SDS_P2;PMS_P1;PMS_P2;Temp;Humidity;BMP_temperature;BMP_pressure;BME280_temperature;BME280_humidity;BME280_pressure;Samples;Min_cycle;Max_cycle;Signal;HPM_P1;HPM_P2
2020/12/28 00:00:35;;;;;;;6.25;3.15;;;;;;;3.96;78.00;97949.31;5090196;28;20093;-71
2020/12/28 00:03:03;;;;;;;5.97;2.40;;;;;;;3.93;77.31;97943.47;5074111;28;20045;-73
2020/12/28 00:05:31;;;;;;;6.75;2.60;;;;;;;3.96;77.31;97944.28;5069963;28;20048;-72
2020/12/28 00:07:59;;;;;;;5.53;2.38;;;;;;;3.96;77.26;97949.31;5069795;28;20045;-72
2020/12/28 00:10:27;;;;;;;7.03;2.15;;;;;;;3.94;77.90;97943.44;5069754;28;20565;-72
2020/12/28 00:12:55;;;;;;;8.73;3.08;;;;;;;3.92;78.38;97942.59;5069883;28;20041;-71
2020/12/28 00:15:25;;;;;;;5.47;2.42;;;;;;;3.90;78.56;97926.63;5069269;28;20147;-71
2020/12/28 00:17:57;;;;;;;;;;;;;;;3.88;78.01;97935.06;5077413;28;20477;-70
2020/12/28 00:20:27;;;;;;;6.45;2.97;;;;;;;3.92;78.26;97926.63;5089923;28;19927;-72
2020/12/28 00:22:55;;;;;;;5.78;2.78;;;;;;;3.94;78.47;97910.63;5089475;28;20485;-72
2020/12/28 00:25:23;;;;;;;5.10;2.08;;;;;;;3.98;77.18;97899.69;5086445;28;20053;-71
2020/12/28 00:27:51;;;;;;;6.95;2.65;;;;;;;3.96;77.23;97908.94;5076564;28;20040;-72
2020/12/28 00:30:23;;;;;;;5.32;2.47;;;;;;;3.92;77.47;97901.41;5076473;28;20043;-71
2020/12/28 00:32:54;;;;;;;6.30;2.35;;;;;;;3.85;78.51;97890.50;5076614;28;20057;-71
2020/12/28 00:35:25;;;;;;;5.50;2.80;;;;;;;3.82;78.16;97895.53;5075851;28;20079;-72
2020/12/28 00:37:57;;;;;;;6.03;2.80;;;;;;;3.81;78.69;97901.44;5076206;28;20044;-70
2020/12/28 00:40:25;;;;;;;5.43;2.80;;;;;;;3.76;78.32;97890.53;5076107;28;20045;-72
2020/12/28 00:42:58;;;;;;;5.75;2.80;;;;;;;3.74;79.00;97894.72;5076071;28;20094;-71
2020/12/28 00:45:29;;;;;;;6.82;2.90;;;;;;;3.71;78.58;97877.09;5074777;28;20044;-70
2020/12/28 00:47:59;;;;;;;7.03;2.80;;;;;;;3.66;79.60;97881.31;5076023;28;20131;-72
2020/12/28 00:50:27;;;;;;;6.80;3.08;;;;;;;3.65;79.93;97867.00;5070511;28;20083;-71
2020/12/28 00:52:57;;;;;;;8.00;3.13;;;;;;;3.63;80.09;97858.59;5075694;28;20070;-71
2020/12/28 00:55:31;;;;;;;5.93;3.10;;;;;;;3.59;80.13;97858.63;5075975;28;20049;-72
2020/12/28 00:57:59;;;;;;;5.22;2.55;;;;;;;3.59;79.57;97862.00;5075798;28;20041;-72
2020/12/28 01:00:26;;;;;;;6.63;3.28;;;;;;;3.58;79.64;97854.41;5075700;28;20060;-72
2020/12/28 01:03:03;;;;;;;5.90;3.22;;;;;;;3.56;80.12;97851.91;5075735;28;20052;-72
2020/12/28 01:05:51;;;;;;;6.53;3.35;;;;;;;3.59;79.38;97851.91;5075320;28;20068;-71
2020/12/28 01:08:21;;;;;;;7.22;3.40;;;;;;;3.59;80.13;97866.19;5075374;28;20037;-72
2020/12/28 01:10:48;;;;;;;7.07;3.67;;;;;;;3.61;80.13;97854.41;5075522;28;20040;-71
2020/12/28 01:13:21;;;;;;;;;;;;;;;3.59;80.09;97851.91;5076021;28;20028;-72
2020/12/28 01:15:56;;;;;;;8.70;3.83;;;;;;;3.56;80.28;97854.41;5073927;28;20010;-73
2020/12/28 01:18:27;;;;;;;8.52;3.70;;;;;;;3.53;79.75;97844.34;5057651;28;20068;-73
2020/12/28 01:21:00;;;;;;;9.05;3.58;;;;;;;3.52;80.46;97840.16;5074168;28;20045;-71
2020/12/28 01:23:41;;;;;;;7.75;4.03;;;;;;;3.51;79.92;97833.41;5075474;28;20474;-72
2020/12/28 01:26:11;;;;;;;7.78;4.10;;;;;;;3.53;80.56;97821.63;5073733;28;20071;-73
2020/12/28 01:29:01;;;;;;;;;;;;;;;3.57;80.04;97835.94;5053758;28;20049;-72
2020/12/28 01:31:34;;;;;;;9.25;4.10;;;;;;;3.60;79.46;97830.06;5053256;28;19955;-72
2020/12/28 01:34:07;;;;;;;7.70;4.13;;;;;;;3.56;80.16;97834.25;5053060;28;20083;-71
2020/12/28 01:36:41;;;;;;;9.75;3.80;;;;;;;3.49;80.56;97819.97;5052240;28;20498;-71
2020/12/28 01:39:20;;;;;;;7.05;3.20;;;;;;;3.47;80.47;97821.69;5032573;28;20055;-71
2020/12/28 01:41:51;;;;;;;7.38;3.92;;;;;;;3.51;80.50;97822.50;5016470;28;20099;-72
2020/12/28 01:44:20;;;;;;;8.10;4.05;;;;;;;3.53;80.43;97811.56;5034860;28;20486;-71
2020/12/28 01:46:54;;;;;;;8.77;3.85;;;;;;;3.53;79.65;97813.25;5052623;28;20045;-72
2020/12/28 01:49:23;;;;;;;9.95;4.25;;;;;;;3.51;79.68;97798.13;5036174;28;20057;-70
2020/12/28 01:51:52;;;;;;;8.60;3.92;;;;;;;3.50;80.18;97791.41;5052584;28;20533;-72
2020/12/28 01:54:22;;;;;;;8.48;4.35;;;;;;;3.48;79.67;97793.06;5036213;28;20040;-72
2020/12/28 01:56:56;;;;;;;8.40;3.80;;;;;;;3.47;80.36;97796.47;5052614;28;20091;-70
2020/12/28 01:59:35;;;;;;;8.52;4.50;;;;;;;3.49;80.19;97784.69;5042016;28;20041;-71
2020/12/28 02:02:27;;;;;;;8.75;4.55;;;;;;;3.52;79.83;97789.72;5002923;28;20164;-72
2020/12/28 02:04:59;;;;;;;10.13;4.50;;;;;;;3.49;79.49;97794.78;4973594;28;20045;-71
2020/12/28 02:07:31;;;;;;;7.85;3.95;;;;;;;3.45;80.76;97787.22;4993521;28;20487;-71
2020/12/28 02:10:07;;;;;;;10.38;4.35;;;;;;;3.45;79.83;97775.47;4977054;28;20050;-70
2020/12/28 02:12:39;;;;;;;8.15;4.15;;;;;;;3.37;80.34;97757.00;4976895;28;20057;-72
2020/12/28 02:15:07;;;;;;;8.98;4.35;;;;;;;3.45;79.86;97762.84;4992613;28;20090;-72
2020/12/28 02:17:41;;;;;;;10.18;3.97;;;;;;;3.44;80.75;97761.16;4993377;28;20053;-71
2020/12/28 02:20:18;;;;;;;;;;;;;;;3.43;80.56;97744.38;4980787;28;20057;-72
2020/12/28 02:22:50;;;;;;;8.50;4.10;;;;;;;3.42;80.28;97744.38;4980398;28;19929;-73
2020/12/28 02:25:22;;;;;;;9.70;4.22;;;;;;;3.38;80.16;97741.03;4988231;28;20042;-72
2020/12/28 02:27:51;;;;;;;9.45;4.40;;;;;;;3.41;80.83;97732.63;4992771;28;20526;-72
2020/12/28 02:30:19;;;;;;;10.25;4.70;;;;;;;3.42;80.30;97707.41;4992717;28;20100;-71
2020/12/28 02:33:10;;;;;;;7.53;4.35;;;;;;;3.44;80.51;97715.78;4976901;28;20552;-71
2020/12/28 02:35:50;;;;;;;7.45;3.80;;;;;;;3.46;79.90;97704.00;5012391;28;20506;-72
2020/12/28 02:38:19;;;;;;;7.35;4.10;;;;;;;3.43;80.32;97709.09;4997725;28;20066;-71
2020/12/28 02:40:50;;;;;;;8.15;4.22;;;;;;;3.43;80.91;97723.38;4992625;28;20054;-70
2020/12/28 02:43:18;;;;;;;7.43;4.10;;;;;;;3.49;80.08;97696.44;5053708;28;20405;-73
2020/12/28 02:45:51;;;;;;;9.23;4.30;;;;;;;3.48;80.90;97697.28;5054146;28;20052;-72
2020/12/28 02:48:26;;;;;;;10.10;4.40;;;;;;;3.50;80.45;97689.72;5053503;28;20127;-71
2020/12/28 02:50:57;;;;;;;7.05;3.35;;;;;;;3.46;81.03;97709.06;5064919;28;20493;-71
2020/12/28 02:53:32;;;;;;;8.18;4.03;;;;;;;3.47;80.90;97698.13;5073902;28;20045;-71
2020/12/28 02:56:03;;;;;;;9.18;4.13;;;;;;;3.49;80.47;97693.06;5074009;28;20074;-71
2020/12/28 02:58:34;;;;;;;7.43;4.13;;;;;;;3.44;80.41;97690.56;5073797;28;20055;-72
2020/12/28 03:01:05;;;;;;;10.13;4.75;;;;;;;3.31;80.83;97683.94;5073508;28;20040;-71
2020/12/28 03:03:37;;;;;;;6.78;3.75;;;;;;;3.39;81.35;97693.13;5073471;28;20048;-71
2020/12/28 03:06:08;;;;;;;12.25;4.05;;;;;;;3.38;81.61;97685.59;5073403;28;20070;-72
2020/12/28 03:08:40;;;;;;;9.38;4.15;;;;;;;3.38;81.68;97691.44;5073363;28;20044;-71
2020/12/28 03:11:11;;;;;;;9.82;4.70;;;;;;;3.34;81.36;97693.97;5073888;28;20127;-72
2020/12/28 03:13:42;;;;;;;10.07;4.22;;;;;;;3.29;82.04;97680.56;5067320;28;20095;-72
2020/12/28 03:16:14;;;;;;;9.50;4.10;;;;;;;3.28;81.71;97683.94;5073713;28;20076;-71
2020/12/28 03:18:44;;;;;;;8.95;4.50;;;;;;;3.30;81.65;97664.59;5073527;28;20052;-72
2020/12/28 03:21:15;;;;;;;9.48;4.90;;;;;;;3.29;82.66;97645.28;5073491;28;20044;-71
2020/12/28 03:23:50;;;;;;;7.90;4.38;;;;;;;3.27;82.66;97657.91;5073904;28;20067;-71
2020/12/28 03:26:21;;;;;;;10.88;5.20;;;;;;;3.28;82.31;97643.63;5073362;28;20474;-71
2020/12/28 03:29:15;;;;;;;9.80;4.45;;;;;;;3.28;82.80;97653.69;5073349;28;20393;-72
2020/12/28 03:31:46;;;;;;;10.77;4.65;;;;;;;3.28;82.13;97649.50;5073793;28;20060;-71
2020/12/28 03:34:17;;;;;;;10.80;4.85;;;;;;;3.31;82.02;97658.72;5071992;28;20484;-71
2020/12/28 03:36:48;;;;;;;10.30;4.38;;;;;;;3.30;81.94;97646.97;5073253;28;20056;-71
2020/12/28 03:39:20;;;;;;;10.48;5.03;;;;;;;3.29;83.17;97640.22;5073148;28;20052;-71
2020/12/28 03:41:50;;;;;;;8.88;4.38;;;;;;;3.24;83.19;97639.41;5073305;28;20123;-71
2020/12/28 03:44:29;;;;;;;11.45;4.90;;;;;;;3.23;82.58;97641.13;5073166;28;20041;-71
2020/12/28 03:47:00;;;;;;;9.35;4.55;;;;;;;3.18;82.95;97634.41;5068849;28;20047;-72
2020/12/28 03:49:31;;;;;;;10.88;4.75;;;;;;;3.22;83.21;97633.56;5073137;28;20098;-72
2020/12/28 03:52:02;;;;;;;8.32;4.43;;;;;;;3.24;82.87;97626.81;5073086;28;20076;-71
2020/12/28 03:54:34;;;;;;;11.45;4.63;;;;;;;3.20;83.11;97631.06;5072777;28;20048;-70
2020/12/28 03:57:07;;;;;;;8.52;4.47;;;;;;;3.16;83.68;97624.38;5073151;28;20517;-71
2020/12/28 03:59:39;;;;;;;8.50;4.35;;;;;;;3.17;83.80;97625.16;5066966;28;20049;-72
2020/12/28 04:02:10;;;;;;;8.40;4.45;;;;;;;3.16;83.48;97619.31;5076015;28;20049;-72
2020/12/28 04:04:41;;;;;;;8.93;4.40;;;;;;;3.22;83.00;97598.28;5075731;28;20052;-72
2020/12/28 04:07:14;;;;;;;8.77;4.47;;;;;;;3.20;83.47;97590.72;5077083;28;20051;-72
2020/12/28 04:10:06;;;;;;;10.07;4.25;;;;;;;3.25;83.27;97588.19;5076563;28;20045;-73
2020/12/28 04:12:44;;;;;;;11.05;4.57;;;;;;;3.19;83.32;97583.19;5058840;28;20447;-72
2020/12/28 04:15:12;;;;;;;10.20;4.60;;;;;;;3.28;82.88;97588.16;5075873;28;20413;-70
2020/12/28 04:17:44;;;;;;;9.88;4.80;;;;;;;3.27;82.63;97587.31;5076518;28;20459;-71
2020/12/28 04:20:12;;;;;;;9.63;4.88;;;;;;;3.23;82.62;97577.28;5076685;28;20064;-71
2020/12/28 04:22:40;;;;;;;8.90;4.50;;;;;;;3.25;82.96;97565.50;5076728;28;20041;-71
2020/12/28 04:25:14;;;;;;;8.98;4.95;;;;;;;3.25;83.38;97578.94;5076211;28;20465;-74
2020/12/28 04:27:42;;;;;;;9.60;4.38;;;;;;;3.25;83.69;97573.06;5076478;28;20282;-72
2020/12/28 04:30:10;;;;;;;10.02;4.82;;;;;;;3.24;83.71;97558.78;5076214;28;20135;-73
2020/12/28 04:32:41;;;;;;;10.68;5.03;;;;;;;3.26;83.28;97564.66;5076204;28;20049;-71
2020/12/28 04:35:09;;;;;;;9.95;4.47;;;;;;;3.30;82.89;97561.28;5076543;28;20068;-71
2020/12/28 04:37:40;;;;;;;12.07;5.35;;;;;;;3.31;82.89;97570.53;5074927;28;20043;-70
2020/12/28 04:40:09;;;;;;;10.15;4.90;;;;;;;3.33;83.14;97571.34;5075857;28;20131;-72
2020/12/28 04:42:42;;;;;;;8.02;4.22;;;;;;;3.34;82.59;97588.13;5076002;28;20075;-71
2020/12/28 04:45:11;;;;;;;9.00;4.93;;;;;;;3.30;83.35;97582.28;5076311;28;20510;-71
2020/12/28 04:47:41;;;;;;;11.85;4.93;;;;;;;3.30;83.21;97561.28;5075918;28;20139;-71
2020/12/28 04:50:14;;;;;;;9.75;5.15;;;;;;;3.23;83.73;97550.41;5074619;28;20053;-70
2020/12/28 04:52:47;;;;;;;8.57;4.90;;;;;;;3.29;82.93;97552.03;5076314;28;20123;-71
2020/12/28 04:55:19;;;;;;;8.77;4.45;;;;;;;3.29;83.16;97544.47;5075832;28;20375;-71
2020/12/28 04:57:47;;;;;;;10.65;5.30;;;;;;;3.34;83.23;97545.28;5075650;28;20057;-71
2020/12/28 05:00:15;;;;;;;11.98;5.07;;;;;;;3.39;83.29;97541.88;5075725;28;20433;-72
2020/12/28 05:02:42;;;;;;;9.32;4.57;;;;;;;3.42;83.26;97540.19;5074415;28;20049;-71
2020/12/28 05:05:10;;;;;;;9.05;5.07;;;;;;;3.45;82.40;97550.25;5075858;28;20059;-71
2020/12/28 05:07:40;;;;;;;9.57;4.75;;;;;;;3.49;83.02;97532.56;5075368;28;20517;-71
2020/12/28 05:10:08;;;;;;;9.43;5.15;;;;;;;3.49;82.40;97530.03;5073994;28;20102;-71
2020/12/28 05:12:40;;;;;;;8.52;4.88;;;;;;;3.49;82.19;97531.72;5075404;28;20067;-70
2020/12/28 05:15:11;;;;;;;8.50;4.78;;;;;;;3.48;82.86;97515.75;5075219;28;20053;-71
2020/12/28 05:17:41;;;;;;;11.32;5.13;;;;;;;3.52;82.37;97512.38;5075637;28;20048;-70
2020/12/28 05:20:09;;;;;;;9.23;3.45;;;;;;;3.54;82.60;97495.56;5075590;28;20036;-71
2020/12/28 05:22:37;;;;;;;9.10;4.75;;;;;;;3.54;81.87;97495.56;5075281;28;20450;-71
2020/12/28 05:25:05;;;;;;;10.77;4.57;;;;;;;3.53;82.34;97493.88;5074911;28;20494;-73
2020/12/28 05:27:33;;;;;;;9.93;4.88;;;;;;;3.55;82.02;97487.13;5075056;28;20131;-71
2020/12/28 05:30:03;;;;;;;10.30;4.90;;;;;;;3.55;82.31;97494.69;5074228;28;20516;-71
2020/12/28 05:32:35;;;;;;;11.20;5.15;;;;;;;3.53;81.86;97488.81;5075298;28;20048;-71
2020/12/28 05:35:05;;;;;;;9.75;4.82;;;;;;;3.55;82.30;97481.25;5075041;28;20486;-71
2020/12/28 05:37:34;;;;;;;9.00;4.85;;;;;;;3.55;82.00;97477.03;5075496;28;20055;-71
2020/12/28 05:40:02;;;;;;;9.48;4.93;;;;;;;3.55;82.83;97482.06;5073975;28;20040;-71
2020/12/28 05:42:30;;;;;;;10.10;4.90;;;;;;;3.59;81.90;97478.69;5074526;28;20060;-71
2020/12/28 05:45:09;;;;;;;9.15;4.57;;;;;;;3.62;82.17;97492.97;5074792;28;20051;-72
2020/12/28 05:47:41;;;;;;;8.68;4.38;;;;;;;3.62;82.48;97493.81;5074383;28;20051;-71
2020/12/28 05:50:10;;;;;;;9.80;4.63;;;;;;;3.64;82.43;97498.84;5075151;28;20045;-71
2020/12/28 05:52:38;;;;;;;9.80;4.97;;;;;;;3.65;82.14;97518.13;5075150;28;20117;-71
2020/12/28 05:55:07;;;;;;;10.95;5.55;;;;;;;3.64;82.44;97512.28;5074678;28;20045;-71
2020/12/28 05:57:38;;;;;;;11.07;5.32;;;;;;;3.63;82.06;97490.41;5074314;28;20068;-71
2020/12/28 06:00:09;;;;;;;9.63;5.35;;;;;;;3.63;81.80;97482.00;5070947;28;20110;-72
2020/12/28 06:02:40;;;;;;;10.70;5.80;;;;;;;3.60;81.65;97480.34;5065836;28;20060;-69
2020/12/28 06:05:09;;;;;;;11.27;5.28;;;;;;;3.63;81.59;97489.56;5086507;28;20058;-70
2020/12/28 06:07:37;;;;;;;10.73;5.03;;;;;;;3.61;81.76;97455.97;5094783;28;20048;-72
2020/12/28 06:10:07;;;;;;;10.30;4.85;;;;;;;3.60;81.86;97460.19;5094537;28;20446;-71
2020/12/28 06:12:35;;;;;;;9.93;5.03;;;;;;;3.61;81.83;97449.25;5093246;28;20040;-70
2020/12/28 06:15:17;;;;;;;10.77;4.80;;;;;;;3.61;81.41;97464.38;5076620;28;20060;-70
2020/12/28 06:17:45;;;;;;;8.57;4.68;;;;;;;3.62;81.02;97455.16;5074638;28;20500;-70
2020/12/28 06:20:13;;;;;;;9.55;5.15;;;;;;;3.61;81.66;97461.88;5074098;28;20488;-69
2020/12/28 06:22:44;;;;;;;9.68;4.43;;;;;;;3.62;81.77;97460.19;5074148;28;20058;-72
2020/12/28 06:25:15;;;;;;;8.23;4.80;;;;;;;3.61;81.42;97476.16;5071363;28;20052;-71
2020/12/28 06:27:47;;;;;;;7.82;4.30;;;;;;;3.65;81.88;97468.53;5054180;28;20055;-71
2020/12/28 06:30:16;;;;;;;10.25;4.78;;;;;;;3.67;80.94;97471.88;5061274;28;20037;-70
2020/12/28 06:32:46;;;;;;;9.38;4.70;;;;;;;3.67;81.47;97471.88;5073011;28;20043;-71
2020/12/28 06:35:18;;;;;;;11.07;5.25;;;;;;;3.66;81.53;97465.19;5071516;28;20040;-71
2020/12/28 06:37:50;;;;;;;8.30;4.35;;;;;;;3.67;81.50;97461.78;5073868;28;20059;-71
2020/12/28 06:40:29;;;;;;;7.40;4.20;;;;;;;3.71;80.75;97476.06;5073575;28;20418;-71
2020/12/28 06:43:12;;;;;;;9.27;4.85;;;;;;;3.73;81.44;97471.84;5073983;28;20105;-70
2020/12/28 06:45:46;;;;;;;9.27;4.15;;;;;;;3.78;81.26;97480.22;5073965;28;20048;-70
2020/12/28 06:48:20;;;;;;;8.35;4.60;;;;;;;3.75;80.70;97495.34;5072383;28;20056;-70
2020/12/28 06:50:53;;;;;;;9.07;4.85;;;;;;;3.73;80.97;97501.25;5073700;28;20052;-71
2020/12/28 06:53:25;;;;;;;8.68;4.78;;;;;;;3.67;81.64;97512.22;5073729;28;20048;-70
2020/12/28 06:55:54;;;;;;;7.80;4.65;;;;;;;3.63;82.10;97520.69;5073664;28;20124;-72
2020/12/28 06:58:22;;;;;;;10.18;4.88;;;;;;;3.61;82.05;97524.06;5073811;28;20399;-72
2020/12/28 07:00:58;;;;;;;13.32;4.93;;;;;;;3.60;82.47;97513.13;5073580;28;20098;-71
2020/12/28 07:03:27;;;;;;;11.35;5.15;;;;;;;3.57;82.05;97513.19;5072647;28;20437;-70
2020/12/28 07:05:58;;;;;;;;;;;;;;;3.51;82.52;97510.69;5073725;28;20047;-72
2020/12/28 07:08:30;;;;;;;9.55;4.55;;;;;;;3.47;83.35;97498.97;5073766;28;19920;-70
2020/12/28 07:11:00;;;;;;;9.23;4.70;;;;;;;3.52;82.74;97488.84;5073598;28;20054;-69
2020/12/28 07:13:29;;;;;;;9.75;5.32;;;;;;;3.50;82.77;97488.88;5073483;28;20572;-70
2020/12/28 07:16:01;;;;;;;8.73;4.82;;;;;;;3.49;82.67;97487.19;5073434;28;20072;-69
2020/12/28 07:18:30;;;;;;;10.13;5.13;;;;;;;3.50;82.07;97493.91;5073489;28;20048;-70
2020/12/28 07:21:01;;;;;;;8.77;4.45;;;;;;;3.51;81.88;97485.47;5073464;28;20047;-71
2020/12/28 07:23:32;;;;;;;9.73;4.93;;;;;;;3.52;82.86;97492.22;5071620;28;20040;-70
2020/12/28 07:26:04;;;;;;;10.07;5.15;;;;;;;3.45;82.44;97495.63;5073373;28;20102;-70
2020/12/28 07:28:37;;;;;;;11.13;4.45;;;;;;;3.45;82.83;97500.69;5070713;28;20066;-71
2020/12/28 07:31:08;;;;;;;10.35;4.63;;;;;;;3.41;82.53;97504.03;5073277;28;20072;-71
2020/12/28 07:33:45;;;;;;;9.52;4.60;;;;;;;3.36;82.17;97508.28;5072074;28;20385;-71
2020/12/28 07:36:18;;;;;;;11.30;5.55;;;;;;;3.30;83.44;97505.81;5074836;28;20048;-70
2020/12/28 07:38:48;;;;;;;10.70;5.30;;;;;;;3.27;83.46;97514.25;5077630;28;20056;-71
2020/12/28 07:41:19;;;;;;;8.30;4.38;;;;;;;3.25;82.90;97527.69;5077006;28;20398;-70
2020/12/28 07:43:49;;;;;;;14.23;5.68;;;;;;;3.20;84.22;97520.19;5077070;28;20486;-70
2020/12/28 07:46:26;;;;;;;11.38;5.00;;;;;;;3.17;84.02;97534.47;5070233;28;20044;-70
2020/12/28 07:48:59;;;;;;;12.23;5.63;;;;;;;3.11;83.71;97520.25;5061684;28;20494;-70
2020/12/28 07:51:29;;;;;;;8.68;5.15;;;;;;;3.15;83.59;97521.88;5062009;28;20139;-71
2020/12/28 07:54:09;;;;;;;10.35;5.22;;;;;;;3.12;84.54;97521.09;5056938;28;20045;-71
2020/12/28 07:56:46;;;;;;;13.50;6.30;;;;;;;3.10;84.27;97518.56;5061418;28;20051;-72
2020/12/28 07:59:42;;;;;;;12.63;5.38;;;;;;;3.09;82.89;97506.81;5076825;28;20524;-71
2020/12/28 08:02:26;;;;;;;16.05;7.10;;;;;;;3.13;82.93;97495.03;5076718;28;20410;-70
2020/12/28 08:04:58;;;;;;;10.98;5.75;;;;;;;3.10;83.57;97492.50;5060680;28;20120;-71
2020/12/28 08:07:33;;;;;;;11.60;5.53;;;;;;;3.09;82.60;97475.75;5057783;28;20083;-71
2020/12/28 08:10:01;;;;;;;15.43;6.25;;;;;;;3.04;83.42;97497.59;5076650;28;20135;-70
2020/12/28 08:12:30;;;;;;;13.77;6.10;;;;;;;3.06;83.88;97498.44;5075605;28;20036;-71
2020/12/28 08:14:59;;;;;;;14.90;6.35;;;;;;;3.09;83.13;97501.78;5075823;28;20059;-72
2020/12/28 08:17:28;;;;;;;14.85;5.13;;;;;;;3.09;82.43;97476.59;5076033;28;20115;-71
2020/12/28 08:20:06;;;;;;;13.48;6.18;;;;;;;3.12;82.96;97500.94;5076672;28;20053;-71
2020/12/28 08:22:35;;;;;;;13.32;5.72;;;;;;;3.14;81.78;97489.16;5076092;28;20056;-70
2020/12/28 08:25:05;;;;;;;10.32;5.35;;;;;;;3.13;82.31;97453.03;5074976;28;20117;-70
2020/12/28 08:27:33;;;;;;;10.90;5.10;;;;;;;3.22;80.80;97447.06;5075446;28;20045;-71
2020/12/28 08:30:02;;;;;;;12.15;5.03;;;;;;;3.30;80.40;97440.28;5076088;28;20056;-71
2020/12/28 08:32:31;;;;;;;10.90;5.70;;;;;;;3.40;79.79;97431.81;5076362;28;20482;-70
2020/12/28 08:34:59;;;;;;;11.18;3.95;;;;;;;3.53;79.01;97432.56;5061804;28;20294;-69
2020/12/28 08:37:37;;;;;;;8.35;3.60;;;;;;;3.62;78.38;97458.50;5066500;28;20572;-70
2020/12/28 08:40:13;;;;;;;;;;;;;;;3.59;78.61;97448.44;5074839;28;20037;-69
2020/12/28 08:42:41;;;;;;;7.28;3.97;;;;;;;3.59;78.37;97462.72;5055977;28;20007;-70
2020/12/28 08:45:18;;;;;;;8.85;4.10;;;;;;;3.54;78.34;97475.38;5069805;28;20041;-71
2020/12/28 08:47:51;;;;;;;9.52;4.90;;;;;;;3.45;79.27;97455.31;5069554;28;20075;-69
2020/12/28 08:50:19;;;;;;;7.85;4.57;;;;;;;3.47;79.57;97472.91;5058491;28;20061;-70
2020/12/28 08:52:50;;;;;;;7.68;4.07;;;;;;;3.52;76.88;97461.13;5072524;28;20044;-70
2020/12/28 08:55:18;;;;;;;7.45;3.58;;;;;;;3.46;74.65;97441.81;5055642;28;20403;-70
2020/12/28 08:57:50;;;;;;;8.55;3.72;;;;;;;3.73;74.25;97426.44;5070042;28;20461;-70
2020/12/28 09:00:18;;;;;;;10.02;4.20;;;;;;;3.73;74.43;97444.09;5043851;28;20032;-70
2020/12/28 09:02:51;;;;;;;10.43;4.50;;;;;;;3.75;74.83;97436.50;5074233;28;20520;-70
2020/12/28 09:05:19;;;;;;;10.65;4.38;;;;;;;3.72;74.32;97424.75;5062546;28;20770;-72
2020/12/28 09:07:47;;;;;;;9.38;4.03;;;;;;;3.75;73.94;97428.94;5080885;28;20044;-70
2020/12/28 09:10:16;;;;;;;8.63;4.57;;;;;;;3.73;74.16;97451.66;5073849;28;20094;-69
2020/12/28 09:12:44;;;;;;;10.32;4.47;;;;;;;3.75;72.60;97449.97;5056985;28;20052;-71
2020/12/28 09:15:13;;;;;;;9.82;4.80;;;;;;;3.74;73.44;97442.41;5062443;28;20052;-69
2020/12/28 09:17:41;;;;;;;10.35;5.30;;;;;;;3.65;73.10;97423.16;5069041;28;20049;-70
2020/12/28 09:20:09;;;;;;;7.97;4.05;;;;;;;3.57;73.57;97412.34;5096531;28;20498;-70
2020/12/28 09:22:42;;;;;;;9.32;4.45;;;;;;;3.59;73.14;97433.31;5075500;28;20044;-71
2020/12/28 09:25:10;;;;;;;8.27;4.13;;;;;;;3.68;72.59;97418.09;5074910;28;20087;-68
2020/12/28 09:27:39;;;;;;;10.73;4.78;;;;;;;3.71;71.26;97437.41;5062786;28;20114;-72
2020/12/28 09:30:07;;;;;;;9.32;4.75;;;;;;;3.68;71.53;97430.69;5063049;28;20130;-75
2020/12/28 09:32:39;;;;;;;8.95;4.72;;;;;;;3.54;71.81;97419.91;5059374;28;20055;-76
2020/12/28 09:35:11;;;;;;;8.90;4.00;;;;;;;3.53;70.53;97377.09;5065076;28;20032;-75
2020/12/28 09:37:41;;;;;;;9.73;5.13;;;;;;;3.87;70.32;97424.59;5058879;28;20122;-74
2020/12/28 09:40:09;;;;;;;10.40;5.00;;;;;;;3.78;70.92;97429.75;5055222;28;20037;-70
2020/12/28 09:42:38;;;;;;;10.70;4.50;;;;;;;3.86;72.22;97433.00;5068144;28;20072;-71
2020/12/28 09:47:57;;;;;;;8.50;4.95;;;;;;;4.18;70.95;97424.25;5057839;28;20049;-66
2020/12/28 09:50:44;;;;;;;10.07;4.68;;;;;;;4.21;69.94;97439.38;5055795;28;20044;-67
2020/12/28 09:53:12;;;;;;;10.75;5.18;;;;;;;4.17;71.85;97435.22;5085011;28;20048;-69
2020/12/28 09:55:43;;;;;;;7.67;3.30;;;;;;;4.18;71.60;97439.38;5069698;28;20124;-68
2020/12/28 09:58:14;;;;;;;7.88;3.70;;;;;;;4.27;69.30;97436.78;5067812;28;20494;-68
2020/12/28 10:00:43;;;;;;;10.55;3.72;;;;;;;4.23;70.31;97442.69;5074039;28;20040;-68
2020/12/28 10:03:10;;;;;;;15.80;5.70;;;;;;;4.17;70.80;97460.47;5062105;28;20048;-66
2020/12/28 10:05:38;;;;;;;6.15;3.55;;;;;;;4.18;70.15;97464.63;5056430;28;20445;-68
2020/12/28 10:08:06;;;;;;;12.70;6.65;;;;;;;4.21;71.51;97444.41;5061442;28;20092;-67
2020/12/28 10:10:34;;;;;;;9.45;4.40;;;;;;;4.12;72.62;97444.53;5056459;28;20037;-69
2020/12/28 10:13:02;;;;;;;8.05;4.32;;;;;;;4.10;70.97;97447.06;5057191;28;20559;-66
2020/12/28 10:15:33;;;;;;;9.27;4.53;;;;;;;4.19;70.63;97433.50;5055219;28;20041;-73
2020/12/28 10:18:07;;;;;;;7.82;3.53;;;;;;;4.43;68.51;97420.56;5047715;28;20485;-71
2020/12/28 10:20:35;;;;;;;8.02;3.80;;;;;;;4.42;69.87;97446.66;5059408;28;20173;-72
2020/12/28 10:23:03;;;;;;;11.77;4.93;;;;;;;4.25;71.54;97451.13;5084025;28;20422;-72
2020/12/28 10:25:31;;;;;;;7.45;3.80;;;;;;;4.12;72.82;97454.63;5078047;28;20120;-71
2020/12/28 10:28:01;;;;;;;12.32;6.15;;;;;;;4.12;73.33;97449.56;5093872;28;20052;-71
2020/12/28 10:30:30;;;;;;;10.75;3.92;;;;;;;4.06;73.82;97418.50;5078050;28;20547;-70
2020/12/28 10:32:58;;;;;;;8.18;3.67;;;;;;;4.23;71.15;97414.94;5092288;28;20044;-71
2020/12/28 10:35:26;;;;;;;10.18;4.18;;;;;;;4.65;68.59;97419.44;5069457;28;20044;-69
2020/12/28 10:37:56;;;;;;;9.45;5.00;;;;;;;4.69;68.26;97428.63;5070236;28;20402;-71
2020/12/28 10:40:24;;;;;;;8.30;4.25;;;;;;;4.64;68.50;97443.03;5064211;28;20044;-70
2020/12/28 10:43:07;;;;;;;8.50;4.13;;;;;;;4.51;70.00;97441.53;5078477;28;20116;-70
2020/12/28 10:45:35;;;;;;;6.43;3.53;;;;;;;4.65;68.93;97427.03;5054436;28;20044;-70
2020/12/28 10:48:02;;;;;;;8.15;4.20;;;;;;;5.16;65.37;97397.63;5059709;28;20041;-63
2020/12/28 10:50:30;;;;;;;7.18;2.88;;;;;;;5.24;65.66;97343.53;5064846;28;20497;-62
2020/12/28 10:52:59;;;;;;;8.02;4.20;;;;;;;5.04;66.35;97365.75;5078808;28;20046;-64
2020/12/28 10:55:26;;;;;;;10.20;4.82;;;;;;;4.87;68.30;97402.28;5073241;28;20040;-64
2020/12/28 10:58:09;;;;;;;8.38;4.20;;;;;;;4.60;69.99;97386.69;5000865;28;20056;-64
2020/12/28 11:00:38;;;;;;;10.60;4.25;;;;;;;4.42;71.15;97379.34;5024666;28;20052;-64
2020/12/28 11:03:06;;;;;;;11.32;4.45;;;;;;;4.28;72.11;97365.22;5024987;28;20128;-65
2020/12/28 11:05:34;;;;;;;10.57;4.82;;;;;;;4.08;71.09;97333.53;5031414;28;20630;-66
2020/12/28 11:10:15;;;;;;;8.20;4.25;;;;;;;4.61;70.26;97383.28;5132794;27;20955;-63
2020/12/28 11:12:43;;;;;;;10.38;4.78;;;;;;;4.44;71.46;97422.25;5118226;28;20401;-71
2020/12/28 11:15:11;;;;;;;10.23;4.63;;;;;;;4.51;71.14;97368.28;5112945;28;20435;-71
2020/12/28 11:17:39;;;;;;;10.30;4.57;;;;;;;4.49;70.58;97349.78;5110331;28;20509;-70
2020/12/28 11:20:07;;;;;;;11.65;5.63;;;;;;;4.58;70.48;97360.59;5113198;28;20044;-73
2020/12/28 11:22:37;;;;;;;11.60;4.60;;;;;;;4.23;70.65;97301.34;5109389;28;20055;-72
2020/12/28 11:25:06;;;;;;;9.30;3.95;;;;;;;4.66;71.23;97358.78;5113361;28;20043;-72
2020/12/28 11:27:34;;;;;;;10.68;4.43;;;;;;;4.77;71.75;97361.16;5109606;28;20063;-72
2020/12/28 11:30:05;;;;;;;10.32;4.50;;;;;;;4.76;71.64;97354.44;5114293;28;20055;-73
2020/12/28 11:32:33;;;;;;;10.50;4.85;;;;;;;4.75;71.98;97357.84;5115258;27;20075;-74
2020/12/28 11:35:05;;;;;;;10.05;4.85;;;;;;;4.69;72.12;97378.13;5113659;28;20072;-72
2020/12/28 11:37:33;;;;;;;9.15;4.55;;;;;;;4.28;72.43;97332.41;5121242;27;20033;-71
2020/12/28 11:40:00;;;;;;;10.20;4.85;;;;;;;4.63;72.45;97383.28;5112265;28;20380;-72
2020/12/28 11:42:30;;;;;;;13.88;4.63;;;;;;;4.66;72.13;97379.00;5112997;28;20115;-71
2020/12/28 11:45:00;;;;;;;15.75;5.20;;;;;;;4.59;73.19;97369.00;5112858;28;20071;-70
2020/12/28 11:47:28;;;;;;;12.50;4.53;;;;;;;4.72;73.34;97357.88;5113489;28;20064;-70
2020/12/28 11:49:56;;;;;;;9.93;4.50;;;;;;;4.83;72.96;97345.91;5109771;28;20085;-70
2020/12/28 11:52:24;;;;;;;12.68;5.32;;;;;;;4.88;71.83;97364.34;5112285;28;20157;-71
2020/12/28 11:54:52;;;;;;;9.00;3.95;;;;;;;4.85;71.11;97364.38;5113946;28;20060;-70
2020/12/28 11:57:21;;;;;;;9.93;4.22;;;;;;;4.75;71.54;97383.09;5113290;28;20051;-71
2020/12/28 11:59:49;;;;;;;9.25;4.85;;;;;;;4.66;72.40;97385.72;5110160;28;20101;-71
2020/12/28 12:02:20;;;;;;;11.35;5.25;;;;;;;4.59;72.31;97379.09;5110138;28;20085;-72